createdAt,value
2023-01-17T00:00:30.013Z,10.65
2023-01-17T00:02:56.746Z,8.10
2023-01-17T00:08:47.189Z,6.70
2023-01-17T00:11:13.977Z,7.03
2023-01-17T00:13:40.968Z,8.75
2023-01-17T00:16:07.729Z,7.55
2023-01-17T00:18:34.580Z,9.68
2023-01-17T00:21:20.205Z,10.38
2023-01-17T00:24:05.577Z,7.93
2023-01-17T00:26:32.373Z,8.70
2023-01-17T00:28:59.052Z,7.00
2023-01-17T00:31:25.717Z,9.05
2023-01-17T00:33:52.375Z,11.02
2023-01-17T00:36:19.034Z,8.77
2023-01-17T00:38:45.733Z,9.75
2023-01-17T00:41:12.442Z,8.35
2023-01-17T00:43:58.147Z,8.32
2023-01-17T00:46:43.434Z,8.90
2023-01-17T00:49:28.924Z,8.00
2023-01-17T00:52:14.455Z,8.95
2023-01-17T00:54:59.957Z,8.90
2023-01-17T00:57:45.540Z,7.40
2023-01-17T01:00:31.159Z,8.75
2023-01-17T01:03:16.727Z,7.15
2023-01-17T01:06:02.163Z,8.85
2023-01-17T01:08:47.743Z,7.88
2023-01-17T01:11:33.025Z,9.23
2023-01-17T01:14:18.491Z,7.17
2023-01-17T01:17:04.009Z,7.85
2023-01-17T01:19:49.461Z,8.88
2023-01-17T01:22:34.874Z,8.98
2023-01-17T01:25:20.316Z,8.93
2023-01-17T01:28:05.758Z,7.45
2023-01-17T01:30:50.999Z,7.32
2023-01-17T01:33:20.464Z,12.23
2023-01-17T01:35:47.233Z,9.02
2023-01-17T01:38:13.972Z,9.93
2023-01-17T01:40:40.758Z,7.78
2023-01-17T01:43:07.495Z,9.75
2023-01-17T01:45:34.264Z,10.27
2023-01-17T01:48:00.977Z,10.15
2023-01-17T01:50:27.661Z,9.20
2023-01-17T01:52:54.337Z,9.05
2023-01-17T01:55:21.051Z,10.23
2023-01-17T01:57:47.996Z,8.55
2023-01-17T02:00:14.732Z,10.52
2023-01-17T02:02:41.472Z,9.23
2023-01-17T02:05:08.206Z,11.43
2023-01-17T02:07:34.925Z,9.85
2023-01-17T02:10:01.647Z,9.30
2023-01-17T02:12:28.354Z,9.68
2023-01-17T02:14:55.620Z,8.73
2023-01-17T02:17:22.382Z,7.78
2023-01-17T02:19:49.120Z,9.27
2023-01-17T02:22:15.849Z,7.30
2023-01-17T02:24:42.549Z,10.52
2023-01-17T02:27:09.211Z,7.60
2023-01-17T02:29:35.943Z,6.57
2023-01-17T02:32:03.306Z,6.95
2023-01-17T02:34:30.035Z,6.85
2023-01-17T02:36:57.815Z,7.50
2023-01-17T02:39:24.567Z,10.68
2023-01-17T02:41:51.266Z,6.45
2023-01-17T02:44:17.944Z,6.50
2023-01-17T02:46:44.621Z,6.18
2023-01-17T02:49:11.316Z,6.20
2023-01-17T02:51:39.029Z,6.07
2023-01-17T02:54:05.789Z,6.55
2023-01-17T02:56:32.741Z,8.25
2023-01-17T02:58:59.518Z,7.95
2023-01-17T03:01:26.572Z,7.68
2023-01-17T03:03:53.425Z,6.13
2023-01-17T03:06:20.104Z,9.23
2023-01-17T03:08:46.820Z,10.32
2023-01-17T03:11:13.546Z,9.55
2023-01-17T03:13:41.280Z,7.38
2023-01-17T03:16:08.311Z,8.77
2023-01-17T03:18:35.069Z,8.27
2023-01-17T03:21:01.811Z,8.10
2023-01-17T03:23:28.663Z,6.75
2023-01-17T03:25:55.413Z,7.40
2023-01-17T03:28:22.127Z,8.73
2023-01-17T03:30:48.861Z,10.82
2023-01-17T03:33:15.647Z,7.25
2023-01-17T03:35:42.307Z,7.97
2023-01-17T03:38:08.995Z,8.43
2023-01-17T03:40:35.808Z,6.45
2023-01-17T03:43:02.491Z,8.25
2023-01-17T03:45:29.280Z,7.18
2023-01-17T03:47:57.840Z,9.10
2023-01-17T03:50:24.579Z,7.28
2023-01-17T03:52:51.367Z,8.48
2023-01-17T03:55:18.070Z,7.10
2023-01-17T03:57:44.764Z,7.30
2023-01-17T04:00:11.496Z,8.77
2023-01-17T04:02:38.246Z,8.15
2023-01-17T04:05:05.268Z,7.68
2023-01-17T04:07:31.997Z,7.00
2023-01-17T04:09:58.676Z,6.75
2023-01-17T04:12:25.396Z,9.70
2023-01-17T04:14:52.143Z,6.53
2023-01-17T04:17:18.845Z,5.97
2023-01-17T04:19:45.534Z,8.20
2023-01-17T04:22:12.247Z,7.05
2023-01-17T04:24:38.974Z,6.60
2023-01-17T04:27:05.629Z,9.00
2023-01-17T04:29:32.313Z,7.03
2023-01-17T04:31:59.042Z,5.78
2023-01-17T04:34:26.294Z,7.35
2023-01-17T04:36:53.080Z,6.15
2023-01-17T04:39:19.835Z,7.35
2023-01-17T04:41:46.509Z,9.18
2023-01-17T04:44:13.238Z,6.57
2023-01-17T04:46:39.934Z,7.88
2023-01-17T04:49:06.617Z,7.85
2023-01-17T04:51:33.339Z,7.30
2023-01-17T04:54:00.093Z,5.70
2023-01-17T04:56:26.831Z,5.88
2023-01-17T04:58:53.527Z,5.13
2023-01-17T05:01:20.431Z,5.22
2023-01-17T05:03:47.210Z,6.30
2023-01-17T05:06:13.912Z,5.75
2023-01-17T05:08:40.618Z,6.78
2023-01-17T05:11:07.425Z,5.18
2023-01-17T05:13:34.126Z,6.47
2023-01-17T05:16:00.867Z,6.97
2023-01-17T05:18:27.679Z,5.68
2023-01-17T05:20:54.437Z,7.38
2023-01-17T05:23:21.171Z,5.97
2023-01-17T05:25:47.863Z,5.43
2023-01-17T05:28:14.619Z,5.60
2023-01-17T05:30:41.454Z,5.88
2023-01-17T05:33:10.213Z,6.03
2023-01-17T05:35:37.109Z,7.10
2023-01-17T05:38:03.860Z,8.23
2023-01-17T05:40:30.969Z,9.70
2023-01-17T05:42:57.776Z,10.35
2023-01-17T05:45:24.469Z,8.68
2023-01-17T05:47:51.153Z,8.98
2023-01-17T05:50:17.857Z,8.43
2023-01-17T05:52:44.513Z,5.90
2023-01-17T05:55:11.257Z,6.45
2023-01-17T05:57:38.010Z,8.70
2023-01-17T06:00:04.910Z,7.75
2023-01-17T06:02:31.771Z,5.75
2023-01-17T06:04:58.461Z,6.30
2023-01-17T06:07:25.158Z,9.32
2023-01-17T06:09:51.887Z,10.93
2023-01-17T06:12:18.557Z,8.00
2023-01-17T06:14:45.295Z,7.07
2023-01-17T06:17:11.991Z,6.60
2023-01-17T06:19:38.685Z,6.20
2023-01-17T06:22:05.383Z,6.03
2023-01-17T06:24:32.102Z,5.53
2023-01-17T06:26:58.779Z,7.32
2023-01-17T06:29:25.469Z,5.13
2023-01-17T06:31:52.148Z,6.70
2023-01-17T06:34:18.941Z,8.07
2023-01-17T06:36:45.640Z,8.15
2023-01-17T06:39:14.870Z,8.98
2023-01-17T06:41:41.828Z,10.82
2023-01-17T06:44:08.549Z,7.93
2023-01-17T06:46:35.294Z,9.77
2023-01-17T06:49:02.095Z,10.77
2023-01-17T06:51:28.797Z,9.07
2023-01-17T06:53:55.598Z,7.60
2023-01-17T06:56:22.399Z,9.75
2023-01-17T06:58:49.119Z,7.93
2023-01-17T07:01:15.904Z,7.22
2023-01-17T07:03:42.827Z,11.98
2023-01-17T07:06:09.607Z,7.28
2023-01-17T07:08:36.365Z,8.32
2023-01-17T07:11:03.131Z,13.13
2023-01-17T07:13:30.630Z,7.93
2023-01-17T07:15:57.399Z,11.50
2023-01-17T07:18:24.239Z,6.53
2023-01-17T07:20:51.000Z,7.07
2023-01-17T07:23:17.720Z,8.73
2023-01-17T07:25:44.369Z,8.35
2023-01-17T07:28:11.065Z,9.05
2023-01-17T07:30:37.825Z,8.30
2023-01-17T07:33:04.631Z,8.07
2023-01-17T07:35:31.371Z,10.55
2023-01-17T07:37:58.072Z,11.88
2023-01-17T07:40:25.427Z,8.38
2023-01-17T07:42:52.216Z,8.55
2023-01-17T07:45:19.905Z,11.05
2023-01-17T07:47:47.153Z,10.63
2023-01-17T07:50:13.951Z,8.57
2023-01-17T07:52:40.628Z,12.13
2023-01-17T07:55:07.379Z,8.68
2023-01-17T07:57:34.149Z,10.63
2023-01-17T08:00:00.908Z,13.60
2023-01-17T08:02:27.704Z,10.48
2023-01-17T08:04:54.559Z,10.32
2023-01-17T08:07:21.287Z,8.45
2023-01-17T08:09:50.161Z,11.38
2023-01-17T08:12:16.918Z,8.95
2023-01-17T08:14:43.775Z,11.60
2023-01-17T08:17:10.445Z,11.43
2023-01-17T08:19:37.168Z,13.93
2023-01-17T08:22:03.942Z,9.35
2023-01-17T08:24:30.689Z,11.45
2023-01-17T08:26:57.400Z,13.13
2023-01-17T08:29:24.150Z,11.27
2023-01-17T08:31:50.881Z,12.00
2023-01-17T08:34:17.693Z,11.23
2023-01-17T08:36:44.961Z,9.82
2023-01-17T08:39:14.484Z,10.73
2023-01-17T08:41:41.242Z,8.52
2023-01-17T08:44:08.049Z,10.65
2023-01-17T08:46:34.795Z,13.55
2023-01-17T08:49:02.837Z,10.98
2023-01-17T08:51:29.915Z,13.02
2023-01-17T08:53:56.671Z,9.85
2023-01-17T08:56:27.405Z,10.90
2023-01-17T08:58:54.135Z,11.00
2023-01-17T09:01:21.016Z,11.88
2023-01-17T09:03:47.790Z,8.35
2023-01-17T09:06:14.496Z,16.83
2023-01-17T09:08:41.224Z,13.35
2023-01-17T09:11:08.046Z,11.68
2023-01-17T09:13:34.732Z,17.42
2023-01-17T09:16:01.548Z,12.50
2023-01-17T09:18:28.345Z,10.95
2023-01-17T09:20:55.297Z,11.27
2023-01-17T09:23:22.066Z,9.85
2023-01-17T09:25:48.780Z,9.60
2023-01-17T09:28:15.509Z,8.73
2023-01-17T09:30:42.326Z,9.73
2023-01-17T09:33:09.109Z,7.65
2023-01-17T09:35:35.958Z,9.18
2023-01-17T09:38:02.695Z,11.93
2023-01-17T09:40:29.425Z,9.68
2023-01-17T09:42:58.099Z,10.00
2023-01-17T09:45:25.591Z,12.93
2023-01-17T09:47:52.566Z,11.70
2023-01-17T09:50:19.283Z,10.70
2023-01-17T09:52:46.099Z,12.05
2023-01-17T09:55:12.820Z,9.88
2023-01-17T09:57:39.678Z,10.63
2023-01-17T10:00:06.585Z,9.32
2023-01-17T10:02:33.375Z,12.48
2023-01-17T10:05:00.272Z,13.68
2023-01-17T10:07:26.981Z,14.38
2023-01-17T10:09:53.693Z,12.48
2023-01-17T10:12:20.434Z,8.38
2023-01-17T10:14:47.149Z,9.30
2023-01-17T10:17:16.179Z,14.00
2023-01-17T10:19:42.921Z,10.98
2023-01-17T10:22:10.269Z,8.77
2023-01-17T10:24:37.007Z,10.13
2023-01-17T10:27:03.697Z,7.60
2023-01-17T10:29:30.507Z,8.18
2023-01-17T10:31:57.309Z,7.97
2023-01-17T10:34:24.053Z,10.43
2023-01-17T10:36:50.787Z,9.23
2023-01-17T10:39:17.511Z,8.10
2023-01-17T10:41:44.225Z,11.43
2023-01-17T10:44:10.925Z,13.10
2023-01-17T10:46:37.691Z,9.13
2023-01-17T10:49:04.455Z,12.38
2023-01-17T10:51:31.168Z,9.00
2023-01-17T10:53:58.437Z,10.13
2023-01-17T10:56:26.225Z,13.32
2023-01-17T10:58:52.976Z,11.80
2023-01-17T11:01:19.825Z,16.88
2023-01-17T11:03:46.727Z,18.05
2023-01-17T11:06:13.961Z,14.23
2023-01-17T11:08:40.686Z,13.00
2023-01-17T11:11:07.392Z,14.13
2023-01-17T11:13:37.257Z,16.30
2023-01-17T11:16:05.954Z,15.48
2023-01-17T11:18:32.761Z,12.90
2023-01-17T11:21:00.578Z,13.95
2023-01-17T11:23:27.627Z,13.88
2023-01-17T11:25:55.158Z,18.65
2023-01-17T11:28:21.922Z,17.13
2023-01-17T11:30:48.710Z,21.42
2023-01-17T11:33:15.421Z,16.20
2023-01-17T11:35:42.147Z,18.30
2023-01-17T11:38:08.910Z,18.67
2023-01-17T11:40:35.595Z,19.13
2023-01-17T11:43:02.406Z,21.77
2023-01-17T11:45:29.138Z,16.13
2023-01-17T11:47:55.973Z,16.30
2023-01-17T11:50:22.695Z,25.42
2023-01-17T11:52:49.352Z,14.75
2023-01-17T11:55:16.108Z,19.98
2023-01-17T11:57:42.831Z,14.73
2023-01-17T12:00:09.529Z,16.00
2023-01-17T12:02:38.617Z,12.98
2023-01-17T12:05:05.384Z,15.85
2023-01-17T12:07:32.137Z,16.88
2023-01-17T12:09:58.826Z,15.60
2023-01-17T12:12:44.443Z,18.48
2023-01-17T12:15:11.180Z,23.02
2023-01-17T12:17:37.887Z,17.40
2023-01-17T12:20:11.633Z,17.02
2023-01-17T12:22:38.395Z,15.73
2023-01-17T12:25:05.117Z,16.35
2023-01-17T12:27:31.846Z,17.42
2023-01-17T12:29:58.894Z,19.75
2023-01-17T12:32:25.692Z,18.15
2023-01-17T12:34:52.571Z,18.00
2023-01-17T12:37:19.336Z,12.75
2023-01-17T12:39:46.068Z,21.40
2023-01-17T12:42:13.554Z,16.27
2023-01-17T12:44:40.233Z,16.65
2023-01-17T12:47:07.382Z,16.13
2023-01-17T12:49:34.081Z,14.93
2023-01-17T12:52:00.817Z,13.15
2023-01-17T12:54:27.670Z,12.43
2023-01-17T12:56:54.399Z,14.35
2023-01-17T12:59:21.144Z,14.80
2023-01-17T13:01:57.366Z,14.65
2023-01-17T13:04:24.345Z,13.18
2023-01-17T13:06:51.083Z,19.05
2023-01-17T13:09:17.896Z,12.02
2023-01-17T13:11:46.623Z,18.13
2023-01-17T13:14:13.363Z,12.02
2023-01-17T13:16:42.029Z,13.57
2023-01-17T13:19:09.143Z,18.50
2023-01-17T13:21:35.920Z,20.00
2023-01-17T13:24:02.664Z,15.77
2023-01-17T13:26:29.524Z,11.70
2023-01-17T13:28:56.265Z,17.48
2023-01-17T13:31:23.020Z,17.23
2023-01-17T13:33:49.866Z,16.75
2023-01-17T13:36:16.808Z,13.75
2023-01-17T13:38:43.550Z,12.30
2023-01-17T13:41:10.287Z,15.93
2023-01-17T13:43:36.992Z,15.57
2023-01-17T13:46:03.897Z,14.38
2023-01-17T13:48:30.841Z,14.00
2023-01-17T13:50:57.545Z,16.77
2023-01-17T13:53:24.289Z,19.17
2023-01-17T13:55:51.026Z,21.98
2023-01-17T13:58:18.425Z,17.77
2023-01-17T14:00:45.186Z,20.13
2023-01-17T14:03:12.090Z,20.48
2023-01-17T14:05:38.843Z,18.02
2023-01-17T14:08:05.594Z,16.40
2023-01-17T14:10:32.301Z,18.70
2023-01-17T14:12:59.070Z,20.70
2023-01-17T14:15:29.894Z,18.88
2023-01-17T14:17:56.707Z,15.65
2023-01-17T14:20:23.488Z,16.65
2023-01-17T14:22:50.230Z,17.38
2023-01-17T14:25:19.766Z,19.63
2023-01-17T14:27:46.513Z,19.95
2023-01-17T14:30:14.174Z,22.42
2023-01-17T14:32:40.937Z,19.73
2023-01-17T14:35:09.226Z,24.95
2023-01-17T14:37:36.062Z,22.60
2023-01-17T14:40:02.826Z,20.88
2023-01-17T14:42:29.715Z,15.77
2023-01-17T14:44:56.410Z,23.90
2023-01-17T14:47:23.158Z,20.05
2023-01-17T14:49:49.937Z,22.55
2023-01-17T14:52:16.730Z,17.67
2023-01-17T14:54:43.451Z,19.48
2023-01-17T14:57:10.150Z,17.90
2023-01-17T14:59:36.843Z,18.20
2023-01-17T15:02:07.998Z,16.90
2023-01-17T15:04:39.509Z,23.67
2023-01-17T15:07:06.820Z,20.23
2023-01-17T15:09:33.505Z,23.27
2023-01-17T15:12:00.183Z,37.38
2023-01-17T15:14:27.776Z,23.20
2023-01-17T15:16:54.667Z,22.38
2023-01-17T15:19:21.873Z,22.10
2023-01-17T15:21:50.422Z,24.27
2023-01-17T15:24:17.405Z,24.23
2023-01-17T15:26:44.170Z,22.02
2023-01-17T15:29:10.918Z,27.20
2023-01-17T15:31:37.948Z,29.35
2023-01-17T15:34:04.651Z,31.42
2023-01-17T15:36:34.438Z,30.48
2023-01-17T15:39:01.579Z,32.20
2023-01-17T15:41:28.308Z,46.75
2023-01-17T15:43:57.706Z,60.63
2023-01-17T15:46:25.741Z,66.45
2023-01-17T15:48:52.597Z,44.33
2023-01-17T15:51:19.381Z,51.38
2023-01-17T15:53:46.162Z,48.15
2023-01-17T15:56:12.945Z,42.20
2023-01-17T15:58:39.706Z,34.58
2023-01-17T16:01:06.510Z,28.13
2023-01-17T16:03:33.324Z,32.05
2023-01-17T16:06:00.350Z,30.63
2023-01-17T16:08:27.152Z,42.75
2023-01-17T16:10:54.012Z,27.80
2023-01-17T16:13:21.779Z,27.48
2023-01-17T16:15:48.724Z,27.75
2023-01-17T16:18:15.521Z,25.25
2023-01-17T16:20:42.251Z,32.83
2023-01-17T16:23:09.016Z,29.30
2023-01-17T16:25:35.722Z,23.20
2023-01-17T16:28:02.489Z,21.55
2023-01-17T16:30:29.258Z,25.65
2023-01-17T16:32:56.949Z,19.20
2023-01-17T16:35:23.720Z,27.65
2023-01-17T16:37:51.052Z,21.05
2023-01-17T16:40:18.069Z,23.13
2023-01-17T16:42:44.810Z,22.83
2023-01-17T16:45:11.504Z,23.35
2023-01-17T16:47:38.260Z,26.67
2023-01-17T16:50:04.980Z,29.02
2023-01-17T16:52:31.672Z,24.27
2023-01-17T16:54:58.770Z,28.05
2023-01-17T16:57:25.531Z,25.85
2023-01-17T16:59:53.237Z,26.95
2023-01-17T17:02:20.090Z,30.70
2023-01-17T17:04:46.888Z,28.95
2023-01-17T17:07:13.556Z,29.38
2023-01-17T17:09:40.274Z,27.00
2023-01-17T17:12:06.973Z,24.38
2023-01-17T17:14:33.691Z,26.85
2023-01-17T17:17:03.151Z,27.08
2023-01-17T17:19:30.001Z,26.85
2023-01-17T17:21:56.756Z,36.63
2023-01-17T17:24:23.477Z,37.17
2023-01-17T17:26:50.171Z,35.60
2023-01-17T17:29:17.026Z,31.90
2023-01-17T17:31:43.881Z,33.20
2023-01-17T17:34:10.626Z,29.45
2023-01-17T17:36:37.368Z,26.08
2023-01-17T17:39:04.422Z,26.48
2023-01-17T17:41:31.223Z,25.10
2023-01-17T17:43:57.955Z,26.77
2023-01-17T17:46:24.770Z,28.38
2023-01-17T17:48:51.573Z,27.80
2023-01-17T17:51:18.274Z,25.73
2023-01-17T17:53:45.002Z,24.25
2023-01-17T17:56:11.746Z,24.60
2023-01-17T17:58:39.447Z,22.02
2023-01-17T18:01:06.263Z,24.13
2023-01-17T18:03:33.051Z,24.33
2023-01-17T18:05:59.816Z,26.45
2023-01-17T18:08:26.641Z,23.10
2023-01-17T18:10:53.333Z,27.15
2023-01-17T18:13:20.070Z,27.83
2023-01-17T18:15:46.782Z,22.58
2023-01-17T18:18:13.488Z,28.58
2023-01-17T18:20:40.240Z,23.05
2023-01-17T18:23:06.985Z,25.80
2023-01-17T18:25:35.622Z,26.52
2023-01-17T18:28:03.071Z,29.40
2023-01-17T18:30:33.013Z,25.92
2023-01-17T18:32:59.725Z,24.33
2023-01-17T18:35:26.440Z,24.48
2023-01-17T18:37:53.384Z,32.97
2023-01-17T18:40:20.282Z,23.52
2023-01-17T18:42:46.990Z,27.48
2023-01-17T18:45:13.705Z,25.42
2023-01-17T18:47:40.423Z,34.75
2023-01-17T18:50:07.229Z,34.65
2023-01-17T18:52:35.147Z,33.30
2023-01-17T18:55:01.928Z,26.63
2023-01-17T18:57:28.708Z,23.60
2023-01-17T18:59:55.549Z,22.20
2023-01-17T19:02:22.282Z,25.75
2023-01-17T19:04:48.968Z,30.42
2023-01-17T19:07:15.800Z,24.48
2023-01-17T19:09:44.213Z,26.00
2023-01-17T19:12:11.004Z,27.30
2023-01-17T19:14:37.793Z,23.35
2023-01-17T19:17:04.618Z,29.15
2023-01-17T19:19:31.339Z,24.58
2023-01-17T19:21:58.072Z,22.95
2023-01-17T19:24:24.851Z,25.25
2023-01-17T19:26:53.323Z,36.33
2023-01-17T19:29:20.160Z,24.63
2023-01-17T19:31:46.936Z,32.10
2023-01-17T19:34:14.695Z,25.73
2023-01-17T19:36:41.529Z,27.08
2023-01-17T19:39:09.526Z,25.60
2023-01-17T19:41:36.321Z,36.38
2023-01-17T19:44:03.302Z,36.78
2023-01-17T19:46:30.048Z,34.78
2023-01-17T19:48:56.785Z,30.08
2023-01-17T19:51:23.512Z,30.23
2023-01-17T19:53:50.267Z,30.63
2023-01-17T19:56:17.004Z,33.25
2023-01-17T19:58:43.735Z,30.08
2023-01-17T20:01:10.519Z,32.47
2023-01-17T20:03:37.746Z,63.67
2023-01-17T20:06:04.463Z,49.75
2023-01-17T20:08:31.211Z,88.05
2023-01-17T20:10:57.982Z,47.90
2023-01-17T20:13:25.279Z,43.85
2023-01-17T20:15:51.959Z,38.53
2023-01-17T20:18:18.660Z,38.45
2023-01-17T20:20:56.584Z,37.47
2023-01-17T20:23:23.933Z,48.28
2023-01-17T20:25:50.653Z,67.03
2023-01-17T20:28:17.373Z,51.30
2023-01-17T20:30:45.652Z,36.10
2023-01-17T20:33:14.980Z,39.53
2023-01-17T20:35:41.688Z,35.00
2023-01-17T20:38:10.527Z,31.77
2023-01-17T20:40:37.256Z,34.78
2023-01-17T20:43:04.096Z,41.08
2023-01-17T20:45:30.914Z,54.70
2023-01-17T20:47:57.976Z,45.92
2023-01-17T20:50:24.790Z,42.20
2023-01-17T20:52:51.526Z,36.95
2023-01-17T20:55:18.241Z,39.85
2023-01-17T20:57:44.928Z,45.63
2023-01-17T21:00:12.404Z,42.63
2023-01-17T21:02:39.206Z,36.30
2023-01-17T21:05:06.022Z,34.80
2023-01-17T21:07:32.745Z,42.28
2023-01-17T21:09:59.491Z,37.88
2023-01-17T21:12:26.197Z,50.85
2023-01-17T21:14:53.704Z,45.78
2023-01-17T21:17:20.573Z,48.83
2023-01-17T21:19:47.300Z,41.80
2023-01-17T21:22:16.696Z,42.08
2023-01-17T21:24:43.507Z,40.00
2023-01-17T21:27:12.352Z,40.55
2023-01-17T21:29:39.065Z,39.58
2023-01-17T21:32:05.869Z,30.58
2023-01-17T21:34:34.638Z,33.50
2023-01-17T21:37:01.410Z,42.08
2023-01-17T21:39:29.264Z,32.53
2023-01-17T21:41:56.016Z,36.83
2023-01-17T21:44:22.977Z,42.25
2023-01-17T21:46:54.175Z,54.83
2023-01-17T21:49:21.987Z,42.83
2023-01-17T21:51:54.598Z,63.10
2023-01-17T21:54:41.288Z,87.15
2023-01-17T21:57:26.456Z,54.03
2023-01-17T21:59:53.207Z,41.65
2023-01-17T22:02:19.929Z,35.00
2023-01-17T22:04:46.702Z,32.25
2023-01-17T22:07:13.454Z,31.13
2023-01-17T22:09:40.546Z,38.13
2023-01-17T22:12:07.319Z,30.55
2023-01-17T22:14:34.128Z,35.00
2023-01-17T22:17:00.877Z,38.35
2023-01-17T22:19:27.632Z,32.17
2023-01-17T22:21:54.328Z,30.67
2023-01-17T22:24:22.244Z,29.20
2023-01-17T22:26:48.964Z,30.52
2023-01-17T22:29:19.052Z,34.65
2023-01-17T22:31:45.782Z,29.17
2023-01-17T22:34:13.950Z,32.58
2023-01-17T22:36:40.706Z,33.30
2023-01-17T22:39:07.511Z,35.97
2023-01-17T22:41:35.248Z,42.10
2023-01-17T22:44:08.543Z,46.78
2023-01-17T22:46:37.209Z,40.85
2023-01-17T22:49:04.115Z,41.55
2023-01-17T22:51:30.896Z,40.05
2023-01-17T22:53:57.673Z,39.80
2023-01-17T22:56:24.501Z,32.83
2023-01-17T22:58:51.226Z,46.10
2023-01-17T23:01:18.003Z,34.45
2023-01-17T23:03:44.784Z,30.27
2023-01-17T23:06:11.582Z,31.52
2023-01-17T23:08:38.395Z,31.23
2023-01-17T23:11:23.738Z,30.00
2023-01-17T23:13:50.501Z,29.60
2023-01-17T23:16:35.692Z,31.95
2023-01-17T23:19:21.274Z,29.17
2023-01-17T23:22:06.687Z,28.10
2023-01-17T23:24:33.408Z,22.77
2023-01-17T23:27:18.648Z,23.35
2023-01-17T23:29:45.524Z,25.00
2023-01-17T23:32:12.471Z,23.85
2023-01-17T23:34:39.169Z,19.90
2023-01-17T23:37:05.882Z,25.67
2023-01-17T23:39:32.568Z,24.45
2023-01-17T23:42:17.864Z,23.08
2023-01-17T23:44:44.585Z,20.92
2023-01-17T23:47:11.300Z,18.98
2023-01-17T23:49:37.995Z,18.65
2023-01-17T23:52:04.697Z,21.67
2023-01-17T23:54:32.104Z,19.38
2023-01-17T23:56:58.816Z,17.00
2023-01-17T23:59:25.483Z,17.23
